createdAt,value
2019-05-29T00:01:56.395Z,101952.02
2019-05-29T00:06:57.915Z,101959.81
2019-05-29T00:11:59.297Z,101963.64
2019-05-29T00:17:01.093Z,101972.23
2019-05-29T00:22:02.960Z,101979.12
2019-05-29T00:27:05.405Z,101982.28
2019-05-29T00:32:07.323Z,101976.34
2019-05-29T00:37:08.621Z,101979.61
2019-05-29T00:42:11.087Z,101994.45
2019-05-29T00:47:13.651Z,102003.97
2019-05-29T00:52:16.632Z,102003.52
2019-05-29T00:57:19.020Z,102002.73
2019-05-29T01:02:20.756Z,102006.28
2019-05-29T01:07:22.543Z,101998.46
2019-05-29T01:12:24.471Z,102006.73
2019-05-29T01:17:25.964Z,102016.12
2019-05-29T01:22:27.463Z,102019.73
2019-05-29T01:27:29.305Z,102014.30
2019-05-29T01:32:31.046Z,102017.75
2019-05-29T01:37:32.534Z,102018.86
2019-05-29T01:42:34.051Z,102026.00
2019-05-29T01:47:36.626Z,102018.38
2019-05-29T01:52:38.303Z,102028.97
2019-05-29T01:57:39.834Z,102028.56
2019-05-29T02:02:41.351Z,102032.59
2019-05-29T02:07:43.028Z,102037.03
2019-05-29T02:12:44.567Z,102044.16
2019-05-29T02:17:45.947Z,102043.56
2019-05-29T02:22:47.467Z,102051.61
2019-05-29T02:27:49.209Z,102049.92
2019-05-29T02:32:50.698Z,102058.95
2019-05-29T02:37:52.236Z,102062.98
2019-05-29T02:42:54.376Z,102063.67
2019-05-29T02:47:55.894Z,102073.92
2019-05-29T02:52:57.730Z,102079.46
2019-05-29T02:57:59.263Z,102077.03
2019-05-29T03:03:01.076Z,102079.44
2019-05-29T03:08:02.648Z,102078.83
2019-05-29T03:13:03.976Z,102077.83
2019-05-29T03:18:05.524Z,102080.23
2019-05-29T03:23:07.017Z,102086.16
2019-05-29T03:28:08.461Z,102093.40
2019-05-29T03:33:10.439Z,102093.48
2019-05-29T03:38:12.397Z,102087.22
2019-05-29T03:43:13.913Z,102087.65
2019-05-29T03:48:15.315Z,102093.58
2019-05-29T03:53:17.017Z,102100.36
2019-05-29T03:58:18.889Z,102106.13
2019-05-29T04:03:20.455Z,102116.34
2019-05-29T04:08:22.081Z,102115.81
2019-05-29T04:13:23.616Z,102125.65
2019-05-29T04:18:27.482Z,102135.36
2019-05-29T04:23:34.194Z,102135.27
2019-05-29T04:28:38.896Z,102143.16
2019-05-29T04:33:40.147Z,102154.77
2019-05-29T04:38:42.060Z,102175.52
2019-05-29T04:43:43.815Z,102176.78
2019-05-29T04:48:45.477Z,102181.88
2019-05-29T04:53:47.077Z,102185.63
2019-05-29T04:58:49.163Z,102193.42
2019-05-29T05:03:50.677Z,102199.27
2019-05-29T05:08:52.570Z,102205.33
2019-05-29T05:13:53.989Z,102211.20
2019-05-29T05:18:55.685Z,102216.98
2019-05-29T05:23:57.193Z,102227.66
2019-05-29T05:28:58.769Z,102222.05
2019-05-29T05:34:00.392Z,102224.78
2019-05-29T05:39:02.251Z,102228.90
2019-05-29T05:44:04.116Z,102235.59
2019-05-29T05:49:05.668Z,102239.53
2019-05-29T05:54:07.215Z,102240.34
2019-05-29T05:59:09.056Z,102247.08
2019-05-29T06:04:10.925Z,102247.88
2019-05-29T06:09:12.863Z,102251.84
2019-05-29T06:14:14.799Z,102252.84
2019-05-29T06:19:16.537Z,102254.12
2019-05-29T06:24:22.544Z,102251.18
2019-05-29T06:29:24.154Z,102253.60
2019-05-29T06:34:25.641Z,102252.97
2019-05-29T06:39:27.254Z,102266.75
2019-05-29T06:44:29.532Z,102264.39
2019-05-29T06:49:31.602Z,102268.91
2019-05-29T06:54:33.146Z,102273.98
2019-05-29T06:59:36.084Z,102275.55
2019-05-29T07:04:38.357Z,102278.53
2019-05-29T07:09:41.054Z,102278.38
2019-05-29T07:14:42.544Z,102284.67
2019-05-29T07:19:54.158Z,102296.41
2019-05-29T07:24:47.505Z,102288.26
2019-05-29T07:29:49.074Z,102281.61
2019-05-29T07:35:02.781Z,102289.33
2019-05-29T07:39:54.442Z,102293.26
2019-05-29T07:44:56.922Z,102293.00
2019-05-29T07:49:58.835Z,102286.55
2019-05-29T07:55:00.316Z,102292.29
2019-05-29T08:00:01.898Z,102295.20
2019-05-29T08:05:04.106Z,102294.84
2019-05-29T08:10:05.761Z,102292.58
2019-05-29T08:15:07.321Z,102296.07
2019-05-29T08:20:09.261Z,102291.27
2019-05-29T08:25:10.789Z,102290.21
2019-05-29T08:30:12.712Z,102290.84
2019-05-29T08:35:14.435Z,102286.66
2019-05-29T08:40:15.951Z,102283.76
2019-05-29T08:45:17.481Z,102285.96
2019-05-29T08:50:19.468Z,102277.20
2019-05-29T08:55:21.578Z,102279.16
2019-05-29T09:00:23.459Z,102278.71
2019-05-29T09:05:25.131Z,102278.70
2019-05-29T09:10:26.553Z,102279.25
2019-05-29T09:15:28.454Z,102280.41
2019-05-29T09:20:50.223Z,102285.95
2019-05-29T09:25:33.897Z,102276.06
2019-05-29T09:30:35.356Z,102282.72
2019-05-29T09:35:36.883Z,102278.31
2019-05-29T09:40:38.438Z,102274.17
2019-05-29T09:45:40.307Z,102280.92
2019-05-29T09:50:50.147Z,102277.45
2019-05-29T09:55:45.880Z,102274.53
2019-05-29T10:00:47.388Z,102280.59
2019-05-29T10:05:48.925Z,102277.72
2019-05-29T10:10:50.499Z,102272.86
2019-05-29T10:15:51.974Z,102272.17
2019-05-29T10:20:54.762Z,102265.83
2019-05-29T10:25:58.825Z,102262.50
2019-05-29T10:31:03.733Z,102273.08
2019-05-29T10:36:04.659Z,102266.81
2019-05-29T10:41:07.457Z,102268.66
2019-05-29T10:46:09.540Z,102254.41
2019-05-29T10:51:11.044Z,102261.61
2019-05-29T10:56:12.654Z,102256.33
2019-05-29T11:01:15.261Z,102260.52
2019-05-29T11:06:16.800Z,102259.73
2019-05-29T11:11:18.413Z,102252.14
2019-05-29T11:16:19.960Z,102249.06
2019-05-29T11:21:21.498Z,102242.34
2019-05-29T11:26:23.480Z,102234.28
2019-05-29T11:31:24.897Z,102239.81
2019-05-29T11:36:26.337Z,102236.13
2019-05-29T11:41:27.764Z,102237.27
2019-05-29T11:46:29.608Z,102228.66
2019-05-29T11:51:31.574Z,102236.23
2019-05-29T11:56:32.955Z,102229.66
2019-05-29T12:01:48.958Z,102232.98
2019-05-29T12:06:38.121Z,102230.45
2019-05-29T12:11:39.648Z,102234.59
2019-05-29T12:16:41.178Z,102223.86
2019-05-29T12:21:43.043Z,102230.28
2019-05-29T12:26:45.020Z,102225.81
2019-05-29T12:31:46.514Z,102219.87
2019-05-29T12:36:48.164Z,102210.90
2019-05-29T12:41:49.748Z,102206.19
2019-05-29T12:46:53.618Z,102221.84
2019-05-29T12:51:55.447Z,102209.78
2019-05-29T12:57:00.658Z,102209.77
2019-05-29T13:02:02.776Z,102196.36
2019-05-29T13:07:04.788Z,102196.77
2019-05-29T13:12:06.349Z,102192.77
2019-05-29T13:17:07.929Z,102190.98
2019-05-29T13:22:09.674Z,102184.69
2019-05-29T13:27:11.225Z,102182.03
2019-05-29T13:32:13.079Z,102170.41
2019-05-29T13:37:14.579Z,102181.57
2019-05-29T13:42:16.340Z,102172.63
2019-05-29T13:47:18.209Z,102156.91
2019-05-29T13:52:20.180Z,102160.30
2019-05-29T13:57:21.780Z,102158.80
2019-05-29T14:02:23.414Z,102158.80
2019-05-29T14:07:24.932Z,102157.00
2019-05-29T14:12:26.811Z,102139.40
2019-05-29T14:17:28.422Z,102130.11
2019-05-29T14:22:29.964Z,102130.11
2019-05-29T14:27:32.662Z,102127.32
2019-05-29T14:32:34.471Z,102127.32
2019-05-29T14:37:36.322Z,102122.50
2019-05-29T14:42:38.161Z,102121.14
2019-05-29T14:47:39.865Z,102119.83
2019-05-29T14:52:41.739Z,102124.30
2019-05-29T14:57:43.566Z,102104.59
2019-05-29T15:02:45.078Z,102104.59
2019-05-29T15:07:46.627Z,102107.23
2019-05-29T15:12:48.133Z,102103.12
2019-05-29T15:17:50.089Z,102103.12
2019-05-29T15:22:52.011Z,102103.84
2019-05-29T15:27:53.565Z,102098.17
2019-05-29T15:32:55.443Z,102108.14
2019-05-29T15:37:57.697Z,102097.84
2019-05-29T15:42:59.258Z,102090.99
2019-05-29T15:48:00.743Z,102089.69
2019-05-29T15:53:02.336Z,102091.53
2019-05-29T15:58:03.893Z,102093.48
2019-05-29T16:03:05.788Z,102085.96
2019-05-29T16:08:07.949Z,102087.41
2019-05-29T16:13:11.017Z,102079.95
2019-05-29T16:18:26.206Z,102079.95
2019-05-29T16:23:30.737Z,102081.71
2019-05-29T16:28:19.838Z,102069.84
2019-05-29T16:33:21.579Z,102076.15
2019-05-29T16:38:23.415Z,102067.70
2019-05-29T16:43:24.881Z,102071.67
2019-05-29T16:48:26.381Z,102066.43
2019-05-29T16:53:28.288Z,102065.61
2019-05-29T16:58:29.891Z,102065.61
2019-05-29T17:03:31.434Z,102067.84
2019-05-29T17:08:32.973Z,102064.66
2019-05-29T17:13:34.802Z,102073.06
2019-05-29T17:18:36.275Z,102064.31
2019-05-29T17:23:38.622Z,102073.27
2019-05-29T17:28:40.982Z,102067.34
2019-05-29T17:33:42.856Z,102069.70
2019-05-29T17:38:44.437Z,102058.53
2019-05-29T17:43:46.004Z,102058.59
2019-05-29T17:48:48.085Z,102057.64
2019-05-29T17:53:50.356Z,102066.45
2019-05-29T17:58:51.962Z,102064.06
2019-05-29T18:03:53.467Z,102059.64
2019-05-29T18:08:55.064Z,102064.50
2019-05-29T18:13:56.548Z,102066.70
2019-05-29T18:18:57.922Z,102070.12
2019-05-29T18:24:00.473Z,102071.80
2019-05-29T18:29:01.822Z,102077.89
2019-05-29T18:34:03.086Z,102077.73
2019-05-29T18:39:06.197Z,102081.58
2019-05-29T18:44:07.561Z,102090.30
2019-05-29T18:49:09.283Z,102095.34
2019-05-29T18:54:11.940Z,102094.49
2019-05-29T18:59:16.067Z,102098.21
2019-05-29T19:04:18.933Z,102099.80
2019-05-29T19:09:21.683Z,102099.20
2019-05-29T19:14:24.013Z,102100.80
2019-05-29T19:19:26.170Z,102102.89
2019-05-29T19:24:28.585Z,102107.39
2019-05-29T19:29:31.219Z,102106.23
2019-05-29T19:34:33.689Z,102113.19
2019-05-29T19:39:35.277Z,102126.96
2019-05-29T19:44:36.815Z,102126.36
2019-05-29T19:49:38.452Z,102138.83
2019-05-29T19:54:40.109Z,102138.77
2019-05-29T19:59:41.634Z,102145.05
2019-05-29T20:04:43.287Z,102151.94
2019-05-29T20:09:45.231Z,102165.84
2019-05-29T20:14:46.968Z,102173.99
2019-05-29T20:19:48.609Z,102177.53
2019-05-29T20:24:50.208Z,102176.86
2019-05-29T20:29:51.782Z,102172.28
2019-05-29T20:34:53.276Z,102179.30
2019-05-29T20:39:54.989Z,102180.10
2019-05-29T20:44:56.676Z,102178.36
2019-05-29T20:49:58.195Z,102173.62
2019-05-29T20:54:59.680Z,102175.86
2019-05-29T21:00:03.568Z,102170.96
2019-05-29T21:05:05.241Z,102163.98
2019-05-29T21:10:06.788Z,102168.91
2019-05-29T21:15:08.760Z,102162.08
2019-05-29T21:20:10.677Z,102169.94
2019-05-29T21:25:17.134Z,102174.33
2019-05-29T21:30:15.658Z,102173.33
2019-05-29T21:35:17.245Z,102183.80
2019-05-29T21:40:18.748Z,102177.55
2019-05-29T21:45:20.674Z,102176.14
2019-05-29T21:50:22.177Z,102167.20
2019-05-29T21:55:24.111Z,102164.82
2019-05-29T22:00:25.634Z,102164.31
2019-05-29T22:05:27.179Z,102165.55
2019-05-29T22:10:28.694Z,102147.31
2019-05-29T22:15:30.183Z,102151.21
2019-05-29T22:20:31.494Z,102153.77
2019-05-29T22:25:34.505Z,102155.04
2019-05-29T22:30:36.484Z,102159.77
2019-05-29T22:35:38.006Z,102152.13
2019-05-29T22:40:39.531Z,102148.45
2019-05-29T22:45:41.084Z,102140.36
2019-05-29T22:50:42.568Z,102129.49
2019-05-29T22:55:44.085Z,102134.67
2019-05-29T23:00:45.588Z,102124.67
2019-05-29T23:05:47.157Z,102119.18
2019-05-29T23:10:48.673Z,102118.14
2019-05-29T23:15:50.282Z,102110.05
2019-05-29T23:20:52.371Z,102108.11
2019-05-29T23:25:54.527Z,102106.06
2019-05-29T23:30:56.684Z,102099.73
2019-05-29T23:35:59.087Z,102092.55
2019-05-29T23:41:01.489Z,102088.43
2019-05-29T23:46:04.023Z,102085.67
2019-05-29T23:51:05.617Z,102099.26
2019-05-29T23:56:06.883Z,102089.03
